Time;durP1;ratioP1;P1;durP2;ratioP2;P2;SDS_P1;SDS_P2;PMS_P1;PMS_P2;Temp;Humidity;BMP_temperature;BMP_pressure;BME280_temperature;BME280_humidity;BME280_pressure;Samples;Min_cycle;Max_cycle;Signal;HPM_P1;HPM_P2
2022/03/28 00:03:25;;;;;;;16.80;14.90;;;13.50;60.70;;;;;;10892384;32;20031;-69
2022/03/28 00:09:27;;;;;;;19.05;14.77;;;13.30;60.90;;;;;;10906849;32;20069;-69
2022/03/28 00:15:29;;;;;;;29.00;22.27;;;13.20;60.90;;;;;;10906580;32;20399;-69
2022/03/28 00:21:32;;;;;;;21.23;16.70;;;13.20;61.50;;;;;;10906464;32;20011;-69
2022/03/28 00:27:35;;;;;;;25.55;19.23;;;13.00;61.50;;;;;;10906281;32;20050;-69
2022/03/28 00:33:37;;;;;;;22.33;14.50;;;12.90;61.80;;;;;;10906153;32;20065;-69
2022/03/28 00:39:39;;;;;;;22.00;16.85;;;13.00;61.90;;;;;;10905889;32;20391;-69
2022/03/28 00:45:42;;;;;;;35.63;24.05;;;12.90;61.90;;;;;;10904474;32;20495;-69
2022/03/28 00:51:44;;;;;;;31.08;21.23;;;12.90;61.90;;;;;;10903774;32;20035;-69
2022/03/28 00:57:47;;;;;;;21.00;17.42;;;12.90;62.10;;;;;;10905118;32;20026;-69
2022/03/28 01:03:49;;;;;;;19.98;14.98;;;12.80;61.90;;;;;;10902540;32;20035;-69
2022/03/28 01:09:54;;;;;;;26.52;19.90;;;12.70;62.30;;;;;;10900664;32;20323;-69
2022/03/28 01:15:56;;;;;;;31.77;23.10;;;12.60;62.50;;;;;;10891261;32;20046;-69
2022/03/28 01:21:59;;;;;;;36.97;29.23;;;12.50;63.50;;;;;;10904470;32;20046;-70
2022/03/28 01:28:02;;;;;;;19.23;14.73;;;12.50;63.80;;;;;;10902783;32;20057;-69
2022/03/28 01:34:04;;;;;;;16.77;13.20;;;12.20;63.90;;;;;;10902176;32;20023;-69
2022/03/28 01:40:07;;;;;;;17.80;13.18;;;12.00;63.90;;;;;;10900118;32;20050;-69
2022/03/28 01:46:08;;;;;;;17.27;13.50;;;11.80;64.10;;;;;;10890744;32;20050;-69
2022/03/28 01:52:10;;;;;;;17.27;14.80;;;11.80;64.00;;;;;;10902008;32;20031;-69
2022/03/28 01:58:12;;;;;;;14.80;11.95;;;11.70;64.20;;;;;;10903805;32;20058;-69
2022/03/28 02:04:14;;;;;;;13.27;10.02;;;11.80;64.30;;;;;;10899449;32;20054;-69
2022/03/28 02:10:19;;;;;;;12.52;9.65;;;11.80;64.60;;;;;;10903605;32;20045;-69
2022/03/28 02:16:22;;;;;;;16.02;12.73;;;11.80;65.30;;;;;;10903534;32;20032;-69
2022/03/28 02:22:24;;;;;;;18.45;14.05;;;11.70;65.10;;;;;;10903371;32;20023;-69
2022/03/28 02:28:26;;;;;;;14.52;10.93;;;11.70;65.30;;;;;;10903154;32;20039;-69
2022/03/28 02:34:28;;;;;;;18.33;12.52;;;11.70;65.90;;;;;;10899179;32;20201;-69
2022/03/28 02:40:31;;;;;;;15.63;10.63;;;11.70;65.80;;;;;;10905879;32;20054;-69
2022/03/28 02:46:33;;;;;;;17.62;14.57;;;11.70;65.70;;;;;;10896364;32;20028;-69
2022/03/28 02:52:36;;;;;;;14.90;10.02;;;11.60;66.00;;;;;;10909646;32;20031;-69
2022/03/28 02:58:37;;;;;;;15.27;11.85;;;11.60;65.90;;;;;;10909381;32;20075;-69
2022/03/28 03:04:40;;;;;;;17.92;15.23;;;11.40;66.20;;;;;;10905087;32;20114;-69
2022/03/28 03:10:42;;;;;;;19.20;13.95;;;11.40;66.80;;;;;;10909015;32;20061;-69
2022/03/28 03:16:44;;;;;;;16.87;12.07;;;11.50;66.80;;;;;;10892224;32;20354;-69
2022/03/28 03:22:46;;;;;;;11.80;8.35;;;11.60;66.80;;;;;;10908622;32;20417;-69
2022/03/28 03:28:48;;;;;;;9.48;7.03;;;11.50;66.70;;;;;;10908010;32;20035;-69
2022/03/28 03:34:51;;;;;;;15.38;12.88;;;11.40;66.50;;;;;;10908217;32;20035;-70
2022/03/28 03:40:54;;;;;;;11.88;8.05;;;11.40;67.10;;;;;;10894802;32;20383;-69
2022/03/28 03:46:56;;;;;;;16.50;11.30;;;11.40;67.20;;;;;;10893805;32;20057;-69
2022/03/28 03:52:58;;;;;;;15.43;10.15;;;11.30;67.20;;;;;;10907546;32;20427;-69
2022/03/28 03:59:02;;;;;;;17.58;12.32;;;11.20;68.00;;;;;;10907425;32;20027;-69
2022/03/28 04:05:05;;;;;;;18.00;13.77;;;11.20;67.80;;;;;;10907208;32;20062;-69
2022/03/28 04:11:08;;;;;;;16.92;12.70;;;11.20;67.90;;;;;;10906866;32;20087;-69
2022/03/28 04:17:10;;;;;;;15.35;8.60;;;11.20;67.60;;;;;;10906671;32;20449;-69
2022/03/28 04:23:12;;;;;;;11.40;7.55;;;11.00;67.90;;;;;;10906332;32;20045;-69
2022/03/28 04:29:14;;;;;;;11.80;7.72;;;10.80;68.00;;;;;;10906123;32;20031;-69
2022/03/28 04:35:16;;;;;;;16.52;10.60;;;10.80;68.20;;;;;;10906109;32;20041;-69
2022/03/28 04:41:19;;;;;;;15.48;11.65;;;10.90;68.10;;;;;;10901597;32;20031;-69
2022/03/28 04:47:21;;;;;;;9.80;5.93;;;11.10;67.80;;;;;;10905571;32;20035;-69
2022/03/28 04:53:23;;;;;;;8.27;5.25;;;10.90;67.50;;;;;;10901737;32;20028;-69
2022/03/28 04:59:25;;;;;;;9.63;7.18;;;10.70;67.90;;;;;;10904549;32;20049;-69
2022/03/28 05:05:27;;;;;;;8.25;4.85;;;10.40;68.30;;;;;;10904762;32;20028;-69
2022/03/28 05:11:46;;;;;;;10.07;7.05;;;10.10;68.80;;;;;;10903433;32;20066;-69
2022/03/28 05:17:48;;;;;;;11.12;7.72;;;9.90;69.30;;;;;;10900598;32;20058;-69
2022/03/28 05:23:50;;;;;;;9.73;6.43;;;10.20;69.30;;;;;;10904258;32;20046;-69
2022/03/28 05:29:52;;;;;;;10.57;6.65;;;10.10;69.10;;;;;;10902528;32;20082;-69
2022/03/28 05:35:55;;;;;;;11.27;8.13;;;10.10;69.50;;;;;;10904178;32;20026;-69
2022/03/28 05:41:57;;;;;;;14.13;11.18;;;10.20;69.60;;;;;;10904000;32;20031;-69
2022/03/28 05:47:59;;;;;;;14.15;10.75;;;10.50;69.00;;;;;;10903882;32;20097;-69
2022/03/28 05:54:01;;;;;;;14.30;9.00;;;10.50;69.20;;;;;;10903125;32;20054;-69
2022/03/28 06:00:05;;;;;;;13.02;10.43;;;10.50;69.20;;;;;;10902365;32;20351;-69
2022/03/28 06:06:13;;;;;;;12.13;9.32;;;10.20;69.90;;;;;;10902237;32;20368;-69
2022/03/28 06:12:15;;;;;;;12.55;8.85;;;10.50;69.50;;;;;;10904039;32;20027;-69
2022/03/28 06:18:41;;;;;;;14.38;11.63;;;10.40;69.90;;;;;;10894120;32;20027;-69
2022/03/28 06:24:44;;;;;;;19.90;14.35;;;10.70;69.80;;;;;;10900002;32;20069;-69
2022/03/28 06:30:46;;;;;;;18.80;14.05;;;11.00;69.40;;;;;;10910245;32;20020;-69
2022/03/28 06:36:49;;;;;;;16.50;10.15;;;11.40;69.20;;;;;;10911291;32;20418;-69
2022/03/28 06:42:51;;;;;;;11.23;7.45;;;11.20;68.90;;;;;;10910061;32;20020;-69
2022/03/28 06:48:54;;;;;;;38.65;23.73;;;10.90;69.10;;;;;;10907195;32;20049;-69
2022/03/28 06:54:56;;;;;;;15.30;12.25;;;10.80;70.00;;;;;;10909703;32;20376;-69
2022/03/28 07:00:58;;;;;;;19.80;15.60;;;11.40;70.00;;;;;;10910293;32;20031;-69
2022/03/28 07:07:08;;;;;;;15.60;11.98;;;11.80;69.20;;;;;;10910618;32;20053;-69
2022/03/28 07:13:10;;;;;;;11.98;8.77;;;12.00;68.60;;;;;;10909136;32;20019;-69
2022/03/28 07:19:13;;;;;;;14.80;9.77;;;12.00;68.30;;;;;;10515306;27;12100194;-69
2022/03/28 07:25:15;;;;;;;10.88;7.82;;;11.60;68.80;;;;;;10827937;32;20313;-69
2022/03/28 07:31:18;;;;;;;12.68;8.52;;;11.50;69.10;;;;;;10830782;32;20431;-69
2022/03/28 07:37:20;;;;;;;17.48;12.07;;;11.50;69.30;;;;;;10825963;33;20095;-69
2022/03/28 07:43:22;;;;;;;20.52;12.95;;;11.50;69.60;;;;;;10836279;32;20061;-69
2022/03/28 07:49:24;;;;;;;18.92;14.30;;;11.90;69.30;;;;;;10907318;32;20031;-69
2022/03/28 07:55:28;;;;;;;22.77;20.15;;;12.30;69.00;;;;;;10907040;32;20443;-69
2022/03/28 08:01:30;;;;;;;21.27;18.05;;;12.60;68.70;;;;;;10907069;32;20356;-71
2022/03/28 08:07:33;;;;;;;16.85;11.80;;;12.70;68.60;;;;;;10906855;32;20026;-71
2022/03/28 08:13:35;;;;;;;17.25;11.63;;;12.60;68.30;;;;;;10906440;32;20313;-71
2022/03/28 08:19:37;;;;;;;14.23;10.27;;;12.50;68.40;;;;;;10906415;32;20023;-72
2022/03/28 08:25:40;;;;;;;16.58;13.05;;;12.40;68.40;;;;;;10906356;32;20050;-71
2022/03/28 08:31:42;;;;;;;26.27;17.70;;;12.70;68.50;;;;;;10892784;32;20027;-71
2022/03/28 08:37:46;;;;;;;20.33;16.35;;;12.80;68.80;;;;;;10905466;32;20023;-71
2022/03/28 08:43:48;;;;;;;19.87;14.70;;;13.00;68.40;;;;;;10892257;32;20031;-71
2022/03/28 08:49:55;;;;;;;16.35;13.15;;;13.30;68.20;;;;;;10892018;32;20058;-72
2022/03/28 08:55:57;;;;;;;16.48;12.63;;;13.50;67.80;;;;;;10903053;32;20023;-72
2022/03/28 09:02:00;;;;;;;20.20;17.02;;;13.70;67.60;;;;;;10905074;32;20419;-72
2022/03/28 09:08:09;;;;;;;19.75;15.25;;;13.80;67.00;;;;;;10905526;32;20023;-69
2022/03/28 09:14:27;;;;;;;38.20;33.17;;;13.80;67.00;;;;;;10904878;32;20019;-69
2022/03/28 09:20:29;;;;;;;40.80;36.43;;;14.00;67.10;;;;;;10904606;32;20077;-69
2022/03/28 09:26:32;;;;;;;26.48;19.90;;;14.20;67.00;;;;;;10902675;32;20105;-69
2022/03/28 09:32:38;;;;;;;25.90;22.62;;;14.20;66.70;;;;;;10904176;32;20023;-69
2022/03/28 09:38:55;;;;;;;22.20;16.40;;;14.30;66.40;;;;;;10903668;32;20055;-69
2022/03/28 09:45:03;;;;;;;23.62;20.05;;;14.50;66.20;;;;;;10903249;32;20053;-70
2022/03/28 09:51:05;;;;;;;31.30;22.77;;;14.80;65.60;;;;;;10903462;32;20031;-70
2022/03/28 09:57:13;;;;;;;24.05;18.35;;;14.90;65.00;;;;;;10903480;32;20023;-70
2022/03/28 10:03:16;;;;;;;20.60;17.37;;;15.10;64.80;;;;;;10903806;32;20069;-71
2022/03/28 10:09:18;;;;;;;23.48;18.98;;;15.20;63.90;;;;;;10890395;32;20023;-70
2022/03/28 10:15:40;;;;;;;20.27;16.95;;;15.30;63.80;;;;;;10899037;32;20054;-70
2022/03/28 10:21:44;;;;;;;29.85;21.33;;;15.50;63.30;;;;;;10900832;32;20015;-71
2022/03/28 10:27:47;;;;;;;19.02;16.33;;;15.70;62.80;;;;;;10886573;32;20346;-70
2022/03/28 10:33:52;;;;;;;27.15;21.92;;;15.90;62.70;;;;;;10899274;32;20020;-71
2022/03/28 10:40:23;;;;;;;34.72;30.60;;;16.10;62.90;;;;;;10888823;32;20388;-71
2022/03/28 10:46:34;;;;;;;25.00;21.90;;;16.20;62.80;;;;;;10902986;32;20020;-70
2022/03/28 10:52:36;;;;;;;47.97;41.40;;;16.50;62.10;;;;;;10902746;32;20058;-71
2022/03/28 10:58:41;;;;;;;36.83;30.85;;;16.70;61.60;;;;;;10904013;32;20422;-70
2022/03/28 11:04:48;;;;;;;48.15;42.33;;;16.80;60.80;;;;;;10889683;32;20032;-71
2022/03/28 11:11:14;;;;;;;45.45;33.60;;;17.20;60.30;;;;;;10890497;32;20088;-71
2022/03/28 11:17:36;;;;;;;31.40;25.88;;;17.50;59.50;;;;;;10892401;32;20067;-70
2022/03/28 11:23:42;;;;;;;34.20;24.30;;;17.70;58.50;;;;;;10868433;32;20325;-70
2022/03/28 11:29:46;;;;;;;43.67;33.78;;;18.00;57.50;;;;;;10870274;32;20050;-70
2022/03/28 11:36:01;;;;;;;37.13;30.42;;;18.30;56.40;;;;;;10853624;32;20019;-70
2022/03/28 11:42:06;;;;;;;27.20;22.08;;;18.50;55.30;;;;;;10869381;32;20027;-70
2022/03/28 11:48:26;;;;;;;31.52;27.50;;;18.60;54.80;;;;;;10870177;32;20050;-70
2022/03/28 11:54:29;;;;;;;22.92;16.77;;;18.90;54.30;;;;;;10889867;32;20073;-70
2022/03/28 12:00:33;;;;;;;31.30;24.42;;;19.00;53.80;;;;;;10906791;32;20027;-70
2022/03/28 12:06:38;;;;;;;19.33;16.12;;;19.20;53.20;;;;;;10905060;32;20027;-70
2022/03/28 12:12:40;;;;;;;33.72;29.90;;;19.30;53.30;;;;;;10906505;32;20056;-70
2022/03/28 12:18:42;;;;;;;23.75;21.10;;;19.40;53.20;;;;;;10906807;32;20403;-70
2022/03/28 12:24:51;;;;;;;28.20;24.02;;;19.30;53.00;;;;;;10905840;32;20031;-70
2022/03/28 12:30:58;;;;;;;31.62;27.17;;;19.30;52.80;;;;;;10906347;32;20027;-71
2022/03/28 12:37:01;;;;;;;19.48;15.60;;;19.30;52.80;;;;;;10904859;32;20063;-69
2022/03/28 12:43:04;;;;;;;27.00;23.62;;;19.20;52.90;;;;;;10902936;32;20031;-70
2022/03/28 12:49:16;;;;;;;28.83;23.83;;;19.20;53.10;;;;;;10905446;32;20019;-70
2022/03/28 12:55:25;;;;;;;27.15;24.10;;;19.50;52.80;;;;;;10904376;32;20031;-70
2022/03/28 13:01:32;;;;;;;40.38;34.05;;;19.50;52.70;;;;;;10902285;32;20020;-70
2022/03/28 13:07:45;;;;;;;26.52;23.42;;;19.60;51.60;;;;;;10902566;32;20028;-70
2022/03/28 13:13:50;;;;;;;41.90;37.67;;;19.60;51.10;;;;;;10904970;32;20031;-71
2022/03/28 13:19:59;;;;;;;26.83;23.42;;;19.70;50.80;;;;;;10903696;32;20023;-70
2022/03/28 13:26:14;;;;;;;39.55;33.28;;;19.80;50.40;;;;;;10904000;32;20054;-70
2022/03/28 13:32:17;;;;;;;34.13;25.83;;;20.00;50.40;;;;;;10903694;32;20040;-71
2022/03/28 13:38:22;;;;;;;36.33;32.03;;;20.00;50.70;;;;;;10904180;32;20019;-70
2022/03/28 13:44:25;;;;;;;38.30;30.80;;;20.10;50.80;;;;;;10903832;32;20054;-71
2022/03/28 13:50:30;;;;;;;30.05;26.10;;;20.20;51.40;;;;;;10903614;32;20339;-71
2022/03/28 13:56:32;;;;;;;34.97;28.65;;;20.20;51.60;;;;;;10899207;32;20062;-70
2022/03/28 14:02:35;;;;;;;42.80;38.13;;;20.30;51.50;;;;;;10884848;32;20031;-70
2022/03/28 14:08:37;;;;;;;40.60;33.03;;;20.50;52.00;;;;;;10903510;32;20431;-70
2022/03/28 14:14:39;;;;;;;45.65;36.63;;;20.40;52.40;;;;;;10902192;32;20387;-70
2022/03/28 14:20:42;;;;;;;42.70;38.28;;;20.40;52.50;;;;;;10900961;32;20050;-70
2022/03/28 14:26:44;;;;;;;26.75;22.98;;;20.30;53.40;;;;;;10902884;32;20019;-70
2022/03/28 14:32:46;;;;;;;33.22;29.52;;;20.20;53.50;;;;;;10905772;32;20395;-70
2022/03/28 14:38:48;;;;;;;41.70;37.08;;;20.50;52.90;;;;;;10908529;32;20030;-70
2022/03/28 14:44:50;;;;;;;44.20;39.58;;;20.50;52.50;;;;;;10909219;32;20024;-70
2022/03/28 14:50:52;;;;;;;29.33;24.67;;;20.40;53.00;;;;;;10908970;32;20031;-70
2022/03/28 14:56:55;;;;;;;37.85;33.95;;;20.30;52.80;;;;;;10905291;32;20058;-70
2022/03/28 15:02:57;;;;;;;37.92;29.15;;;20.40;52.80;;;;;;10909001;32;20557;-70
2022/03/28 15:08:59;;;;;;;35.03;25.62;;;20.40;53.00;;;;;;10907668;32;20069;-70
2022/03/28 15:15:02;;;;;;;40.83;35.13;;;20.50;52.90;;;;;;10904361;32;20486;-71
2022/03/28 15:21:04;;;;;;;40.75;32.30;;;20.70;52.80;;;;;;10925695;27;20034;-71
2022/03/28 15:27:07;;;;;;;38.63;34.65;;;20.80;52.80;;;;;;10944277;32;20301;-70
2022/03/28 15:33:10;;;;;;;36.70;31.48;;;20.80;53.20;;;;;;10943984;32;20049;-71
2022/03/28 15:39:15;;;;;;;23.08;20.40;;;20.80;53.20;;;;;;10939722;32;20035;-71
2022/03/28 15:45:17;;;;;;;30.15;23.35;;;20.80;53.50;;;;;;10943380;32;20339;-71
2022/03/28 15:51:19;;;;;;;32.75;24.02;;;21.00;53.40;;;;;;10943400;32;20327;-71
2022/03/28 15:57:22;;;;;;;28.70;20.98;;;21.00;53.00;;;;;;10943200;32;20027;-71
2022/03/28 16:03:25;;;;;;;34.28;26.12;;;21.20;52.30;;;;;;10926518;32;20038;-71
2022/03/28 16:09:27;;;;;;;24.45;18.25;;;21.40;51.50;;;;;;10941374;32;20053;-71
2022/03/28 16:15:30;;;;;;;28.12;21.70;;;21.40;51.70;;;;;;10939161;32;20034;-71
2022/03/28 16:21:33;;;;;;;24.45;18.40;;;21.40;51.50;;;;;;10937788;32;20054;-71
2022/03/28 16:27:35;;;;;;;28.27;22.95;;;21.60;51.80;;;;;;10938532;32;20083;-71
2022/03/28 16:33:37;;;;;;;38.70;26.60;;;21.30;52.20;;;;;;10930507;32;20036;-71
2022/03/28 16:39:39;;;;;;;28.75;21.45;;;21.20;52.60;;;;;;10921688;32;20026;-70
2022/03/28 16:45:41;;;;;;;30.15;21.85;;;21.00;52.80;;;;;;10920518;32;20062;-70
2022/03/28 16:51:43;;;;;;;29.10;23.65;;;20.80;53.30;;;;;;10936731;32;20331;-70
2022/03/28 16:58:04;;;;;;;39.45;31.60;;;20.40;53.80;;;;;;10941293;32;20031;-70
2022/03/28 17:04:06;;;;;;;43.33;32.25;;;20.00;54.30;;;;;;10941118;32;20066;-70
2022/03/28 17:10:10;;;;;;;34.33;25.02;;;19.40;55.60;;;;;;10937085;32;20031;-70
2022/03/28 17:16:12;;;;;;;41.33;33.53;;;19.00;57.00;;;;;;10903760;32;20344;-71
2022/03/28 17:22:15;;;;;;;33.10;29.17;;;18.60;58.00;;;;;;10900621;32;20019;-70
2022/03/28 17:28:17;;;;;;;29.55;21.55;;;18.20;59.00;;;;;;10900949;32;20039;-70
2022/03/28 17:34:19;;;;;;;24.35;21.77;;;17.80;59.70;;;;;;10902977;32;20328;-70
2022/03/28 17:40:21;;;;;;;25.70;21.40;;;17.70;60.70;;;;;;10904339;32;20352;-70
2022/03/28 17:46:25;;;;;;;24.08;19.37;;;17.40;61.30;;;;;;10932365;32;20039;-71
2022/03/28 17:52:29;;;;;;;23.15;20.70;;;17.30;61.90;;;;;;10908331;32;20430;-70
2022/03/28 17:58:31;;;;;;;24.02;18.58;;;17.20;62.60;;;;;;10904211;32;20050;-71
2022/03/28 18:04:34;;;;;;;22.70;14.52;;;17.30;62.60;;;;;;10904090;32;20359;-70
2022/03/28 18:10:38;;;;;;;23.65;19.23;;;17.30;62.60;;;;;;10910014;32;20057;-70
2022/03/28 18:16:40;;;;;;;18.87;16.12;;;17.30;62.40;;;;;;10911139;32;20415;-71
2022/03/28 18:22:44;;;;;;;17.37;14.38;;;17.30;63.10;;;;;;10910533;32;20027;-71
2022/03/28 18:28:46;;;;;;;24.55;17.33;;;17.30;63.20;;;;;;10910227;32;20035;-71
2022/03/28 18:34:48;;;;;;;20.42;17.80;;;17.10;63.40;;;;;;10908113;32;20464;-72
2022/03/28 18:40:54;;;;;;;15.07;10.80;;;17.00;64.10;;;;;;10908221;32;20073;-71
2022/03/28 18:46:57;;;;;;;20.05;15.52;;;16.90;64.70;;;;;;10893593;32;20023;-71
2022/03/28 18:52:59;;;;;;;24.27;20.73;;;16.80;64.60;;;;;;10906149;32;20054;-71
2022/03/28 18:59:02;;;;;;;24.15;18.42;;;16.70;65.00;;;;;;10908086;32;20085;-71
2022/03/28 19:05:04;;;;;;;24.33;15.25;;;16.60;66.30;;;;;;10908475;32;20053;-71
2022/03/28 19:11:07;;;;;;;20.80;14.68;;;16.60;66.30;;;;;;10905193;32;20424;-71
2022/03/28 19:17:10;;;;;;;21.37;14.82;;;16.50;66.30;;;;;;10908593;32;20081;-71
2022/03/28 19:23:12;;;;;;;17.15;13.38;;;16.40;66.60;;;;;;10908663;32;20058;-71
2022/03/28 19:29:15;;;;;;;17.00;13.13;;;16.30;66.90;;;;;;10905726;32;20031;-71
2022/03/28 19:35:18;;;;;;;15.18;10.93;;;16.30;67.30;;;;;;10905019;32;20032;-71
2022/03/28 19:41:21;;;;;;;15.25;12.27;;;16.50;67.30;;;;;;10890983;32;20364;-71
2022/03/28 19:47:24;;;;;;;12.35;9.07;;;16.50;67.00;;;;;;10907190;32;20385;-71
2022/03/28 19:53:28;;;;;;;14.80;12.45;;;16.40;67.10;;;;;;10907928;32;20047;-71
2022/03/28 19:59:30;;;;;;;17.33;12.20;;;16.30;67.10;;;;;;10907743;32;20061;-71
2022/03/28 20:05:33;;;;;;;22.87;18.55;;;16.20;67.00;;;;;;10906369;32;20027;-71
2022/03/28 20:11:35;;;;;;;17.00;12.37;;;16.00;67.20;;;;;;10907215;32;20039;-71
2022/03/28 20:17:38;;;;;;;19.20;15.20;;;15.90;67.50;;;;;;10912443;32;20035;-71
2022/03/28 20:24:08;;;;;;;17.58;13.05;;;15.90;67.60;;;;;;10930048;32;20027;-71
2022/03/28 20:30:11;;;;;;;19.98;12.63;;;15.90;67.40;;;;;;10940468;32;20363;-71
2022/03/28 20:36:14;;;;;;;23.48;13.90;;;15.80;67.20;;;;;;10944139;32;20027;-71
2022/03/28 20:42:16;;;;;;;14.23;12.60;;;15.80;67.20;;;;;;10943971;32;20425;-71
2022/03/28 20:48:20;;;;;;;20.37;15.32;;;15.70;67.20;;;;;;10943536;32;20030;-71
2022/03/28 20:54:24;;;;;;;16.42;12.55;;;15.70;67.00;;;;;;10940471;32;20027;-71
2022/03/28 21:00:26;;;;;;;17.83;11.55;;;15.80;67.30;;;;;;10943344;32;20028;-71
2022/03/28 21:06:29;;;;;;;20.08;16.12;;;15.80;67.30;;;;;;10943137;32;20023;-71
2022/03/28 21:12:31;;;;;;;21.73;15.48;;;15.70;67.30;;;;;;10942795;32;20023;-71
2022/03/28 21:18:34;;;;;;;21.20;16.30;;;15.70;67.50;;;;;;10940130;32;20022;-71
2022/03/28 21:24:52;;;;;;;18.20;14.02;;;15.70;67.40;;;;;;10940111;32;20023;-71
2022/03/28 21:30:54;;;;;;;15.23;12.60;;;15.70;67.50;;;;;;10938294;32;20331;-71
2022/03/28 21:37:14;;;;;;;23.30;16.17;;;15.70;67.40;;;;;;10938442;32;20015;-71
2022/03/28 21:43:16;;;;;;;15.73;12.90;;;15.60;67.60;;;;;;10941177;32;20026;-71
2022/03/28 21:49:19;;;;;;;22.73;14.52;;;15.50;67.90;;;;;;10941640;32;20050;-71
2022/03/28 21:55:21;;;;;;;17.55;13.62;;;15.50;67.90;;;;;;10937302;32;20096;-71
2022/03/28 22:01:29;;;;;;;17.55;13.15;;;15.40;67.80;;;;;;10941690;32;20027;-71
2022/03/28 22:07:31;;;;;;;21.05;18.30;;;15.30;67.80;;;;;;10926497;32;20362;-71
2022/03/28 22:13:43;;;;;;;16.55;12.90;;;15.20;67.90;;;;;;10941412;32;20058;-71
2022/03/28 22:19:46;;;;;;;19.48;11.40;;;15.10;67.60;;;;;;10937074;32;20054;-71
2022/03/28 22:25:48;;;;;;;21.67;17.87;;;14.90;67.70;;;;;;10936899;32;20449;-71
2022/03/28 22:31:50;;;;;;;19.20;13.52;;;14.90;68.20;;;;;;10940457;32;20023;-71
2022/03/28 22:37:55;;;;;;;15.73;11.60;;;14.90;68.10;;;;;;10927582;32;20027;-71
2022/03/28 22:43:57;;;;;;;15.68;12.82;;;14.80;68.60;;;;;;10936624;32;20019;-71
2022/03/28 22:50:18;;;;;;;24.35;17.85;;;14.80;68.80;;;;;;10940691;32;20030;-71
2022/03/28 22:56:21;;;;;;;22.25;16.37;;;14.70;68.60;;;;;;10928567;32;20022;-71
2022/03/28 23:02:23;;;;;;;18.60;14.18;;;14.70;68.70;;;;;;10947333;32;20023;-71
2022/03/28 23:08:25;;;;;;;17.42;12.85;;;14.70;68.90;;;;;;10933694;32;20422;-71
2022/03/28 23:14:27;;;;;;;14.82;10.30;;;14.70;69.40;;;;;;10947141;32;20047;-71
2022/03/28 23:20:29;;;;;;;14.98;11.52;;;14.60;69.70;;;;;;10923619;27;20367;-71
2022/03/28 23:26:31;;;;;;;16.45;12.52;;;14.50;70.50;;;;;;10905050;32;20027;-71
2022/03/28 23:32:34;;;;;;;12.80;9.63;;;14.30;71.10;;;;;;10905941;32;20027;-71
2022/03/28 23:38:37;;;;;;;19.37;13.15;;;14.20;71.60;;;;;;10879394;32;20039;-71
2022/03/28 23:44:39;;;;;;;16.00;11.77;;;14.20;71.80;;;;;;10867171;32;20028;-71
2022/03/28 23:50:41;;;;;;;13.85;9.60;;;14.00;72.70;;;;;;10870576;32;20054;-71
2022/03/28 23:56:43;;;;;;;19.02;14.20;;;14.10;72.90;;;;;;10870513;32;20032;-71
